createdAt,value
2017-10-04T00:01:06.785Z,4.83
2017-10-04T00:03:08.063Z,4.37
2017-10-04T00:05:09.254Z,4.83
2017-10-04T00:07:11.450Z,4.43
2017-10-04T00:09:12.839Z,4.10
2017-10-04T00:11:16.311Z,5.47
2017-10-04T00:13:17.691Z,3.53
2017-10-04T00:15:18.897Z,4.83
2017-10-04T00:17:20.305Z,3.90
2017-10-04T00:19:21.355Z,3.77
2017-10-04T00:21:22.430Z,4.90
2017-10-04T00:23:25.846Z,4.33
2017-10-04T00:25:27.227Z,4.23
2017-10-04T00:27:28.559Z,4.07
2017-10-04T00:29:29.680Z,4.37
2017-10-04T00:31:31.254Z,4.40
2017-10-04T00:33:32.594Z,4.40
2017-10-04T00:35:35.087Z,5.22
2017-10-04T00:37:36.283Z,4.23
2017-10-04T00:39:37.506Z,5.50
2017-10-04T00:41:38.769Z,5.20
2017-10-04T00:43:40.040Z,5.13
2017-10-04T00:45:41.143Z,5.43
2017-10-04T00:47:42.259Z,5.53
2017-10-04T00:49:43.339Z,6.23
2017-10-04T00:51:44.594Z,5.27
2017-10-04T00:53:50.457Z,5.87
2017-10-04T00:55:52.575Z,5.70
2017-10-04T00:57:56.907Z,5.60
2017-10-04T00:59:58.418Z,5.67
2017-10-04T01:01:59.873Z,6.17
2017-10-04T01:04:00.998Z,6.80
2017-10-04T01:06:02.090Z,5.27
2017-10-04T01:08:03.235Z,4.93
2017-10-04T01:10:04.640Z,5.07
2017-10-04T01:12:08.159Z,5.30
2017-10-04T01:14:11.665Z,5.50
2017-10-04T01:16:13.131Z,5.50
2017-10-04T01:18:17.043Z,5.37
2017-10-04T01:20:18.814Z,5.23
2017-10-04T01:22:20.012Z,4.90
2017-10-04T01:24:22.369Z,5.60
2017-10-04T01:26:25.068Z,5.33
2017-10-04T01:28:26.561Z,5.33
2017-10-04T01:30:28.468Z,4.40
2017-10-04T01:32:30.433Z,5.17
2017-10-04T01:34:33.792Z,5.50
2017-10-04T01:36:35.774Z,5.17
2017-10-04T01:38:37.295Z,5.23
2017-10-04T01:40:40.121Z,5.23
2017-10-04T01:45:22.273Z,5.37
2017-10-04T01:47:23.546Z,4.20
2017-10-04T01:49:26.734Z,4.40
2017-10-04T01:51:41.006Z,4.40
2017-10-04T01:53:44.208Z,4.60
2017-10-04T01:55:45.667Z,4.60
2017-10-04T01:57:49.137Z,4.40
2017-10-04T01:59:51.204Z,4.87
2017-10-04T02:01:52.208Z,4.20
2017-10-04T02:03:58.926Z,4.27
2017-10-04T02:06:00.170Z,4.90
2017-10-04T02:08:01.221Z,4.50
2017-10-04T02:10:02.222Z,4.93
2017-10-04T02:12:03.192Z,5.10
2017-10-04T02:16:30.692Z,4.53
2017-10-04T02:18:31.639Z,4.40
2017-10-04T02:20:32.636Z,4.50
2017-10-04T02:22:34.464Z,5.10
2017-10-04T02:24:35.538Z,4.10
2017-10-04T02:26:36.556Z,4.90
2017-10-04T02:28:44.208Z,4.03
2017-10-04T02:30:53.006Z,3.90
2017-10-04T02:35:30.792Z,4.47
2017-10-04T02:37:54.078Z,4.60
2017-10-04T02:39:55.088Z,4.73
2017-10-04T02:41:56.113Z,4.43
2017-10-04T02:43:58.132Z,4.53
2017-10-04T02:45:59.068Z,4.83
2017-10-04T02:48:04.278Z,5.07
2017-10-04T02:50:06.826Z,5.05
2017-10-04T02:52:07.844Z,5.20
2017-10-04T02:54:08.865Z,5.57
2017-10-04T02:56:09.829Z,5.97
2017-10-04T02:58:10.956Z,5.87
2017-10-04T03:00:11.989Z,5.70
2017-10-04T03:02:12.967Z,6.73
2017-10-04T03:04:13.972Z,6.00
2017-10-04T03:06:15.139Z,6.70
2017-10-04T03:08:16.251Z,6.03
2017-10-04T03:10:17.299Z,6.20
2017-10-04T03:12:22.836Z,6.40
2017-10-04T03:14:23.804Z,6.17
2017-10-04T03:16:25.129Z,7.60
2017-10-04T03:18:27.397Z,7.90
2017-10-04T03:20:28.626Z,7.30
2017-10-04T03:22:29.646Z,6.83
2017-10-04T03:24:30.642Z,6.80
2017-10-04T03:26:31.782Z,8.17
2017-10-04T03:28:36.325Z,7.07
2017-10-04T03:30:37.335Z,7.33
2017-10-04T03:32:38.324Z,7.30
2017-10-04T03:34:39.397Z,7.30
2017-10-04T03:36:40.474Z,7.73
2017-10-04T03:40:54.638Z,8.13
2017-10-04T03:45:09.576Z,8.70
2017-10-04T03:49:54.000Z,9.23
2017-10-04T03:51:55.021Z,10.33
2017-10-04T03:54:08.452Z,10.43
2017-10-04T03:56:32.784Z,9.87
2017-10-04T03:58:33.747Z,9.60
2017-10-04T04:02:45.543Z,11.07
2017-10-04T04:04:46.943Z,10.13
2017-10-04T04:06:48.700Z,10.23
2017-10-04T04:08:50.191Z,10.77
2017-10-04T04:13:22.124Z,9.70
2017-10-04T04:15:23.062Z,10.77
2017-10-04T04:17:24.054Z,9.20
2017-10-04T04:19:25.169Z,10.73
2017-10-04T04:21:26.196Z,11.47
2017-10-04T04:23:33.719Z,11.07
2017-10-04T04:25:37.211Z,10.10
2017-10-04T04:27:38.313Z,10.03
2017-10-04T04:29:43.183Z,12.10
2017-10-04T04:31:47.177Z,9.93
2017-10-04T04:33:51.644Z,9.80
2017-10-04T04:35:52.589Z,10.97
2017-10-04T04:40:23.736Z,9.43
2017-10-04T04:42:29.578Z,10.40
2017-10-04T04:44:30.714Z,11.07
2017-10-04T04:48:47.351Z,9.63
2017-10-04T04:50:48.349Z,10.70
2017-10-04T04:52:50.104Z,10.40
2017-10-04T04:54:51.077Z,10.23
2017-10-04T04:59:13.112Z,10.07
2017-10-04T05:01:19.114Z,9.77
2017-10-04T05:03:20.085Z,9.50
2017-10-04T05:05:21.392Z,10.00
2017-10-04T05:07:22.546Z,9.53
2017-10-04T05:09:23.605Z,9.80
2017-10-04T05:11:24.623Z,10.40
2017-10-04T05:13:25.607Z,10.27
2017-10-04T05:15:26.581Z,10.27
2017-10-04T05:17:27.605Z,9.40
2017-10-04T05:19:28.952Z,10.30
2017-10-04T05:21:30.101Z,10.27
2017-10-04T05:23:31.890Z,10.23
2017-10-04T05:25:32.909Z,10.00
2017-10-04T05:27:33.925Z,8.67
2017-10-04T05:29:34.893Z,9.53
2017-10-04T05:31:35.903Z,9.37
2017-10-04T05:33:37.703Z,9.30
2017-10-04T05:35:38.850Z,9.40
2017-10-04T05:39:50.560Z,10.57
2017-10-04T05:41:51.583Z,11.00
2017-10-04T05:43:52.570Z,9.30
2017-10-04T05:45:53.544Z,10.60
2017-10-04T05:47:54.633Z,9.17
2017-10-04T05:49:55.664Z,9.47
2017-10-04T05:51:56.640Z,8.90
2017-10-04T05:54:28.569Z,9.20
2017-10-04T05:56:29.625Z,9.20
2017-10-04T05:58:31.328Z,9.10
2017-10-04T06:00:32.439Z,9.20
2017-10-04T06:02:51.032Z,9.30
2017-10-04T06:04:52.041Z,9.27
2017-10-04T06:06:53.119Z,10.33
2017-10-04T06:08:54.905Z,8.50
2017-10-04T06:10:55.898Z,7.30
2017-10-04T06:12:56.913Z,8.30
2017-10-04T06:14:57.883Z,8.33
2017-10-04T06:16:58.888Z,8.50
2017-10-04T06:18:59.880Z,9.20
2017-10-04T06:21:00.947Z,8.50
2017-10-04T06:23:01.988Z,9.50
2017-10-04T06:25:02.996Z,9.57
2017-10-04T06:27:03.998Z,9.13
2017-10-04T06:29:05.695Z,8.70
2017-10-04T06:31:06.668Z,8.97
2017-10-04T06:33:07.635Z,8.07
2017-10-04T06:37:22.408Z,7.93
2017-10-04T06:39:23.377Z,7.43
2017-10-04T06:41:24.447Z,7.40
2017-10-04T06:43:25.432Z,7.87
2017-10-04T06:47:53.279Z,7.80
2017-10-04T06:49:54.429Z,7.30
2017-10-04T06:51:56.217Z,7.83
2017-10-04T06:54:04.429Z,7.30
2017-10-04T06:56:05.505Z,7.03
2017-10-04T06:58:06.508Z,8.73
2017-10-04T07:00:07.516Z,7.43
2017-10-04T07:02:08.495Z,7.90
2017-10-04T07:06:37.652Z,7.40
2017-10-04T07:08:38.725Z,6.73
2017-10-04T07:10:39.720Z,6.40
2017-10-04T07:12:41.553Z,8.20
2017-10-04T07:14:42.732Z,6.13
2017-10-04T07:17:01.896Z,5.90
2017-10-04T07:19:02.966Z,6.53
2017-10-04T07:21:04.056Z,7.97
2017-10-04T07:23:31.468Z,7.27
2017-10-04T07:28:00.457Z,7.67
2017-10-04T07:30:01.613Z,7.07
2017-10-04T07:32:02.657Z,7.00
2017-10-04T07:34:03.682Z,7.40
2017-10-04T07:36:04.673Z,7.50
2017-10-04T07:38:05.824Z,6.63
2017-10-04T07:40:31.269Z,7.20
2017-10-04T07:42:32.365Z,7.50
2017-10-04T07:44:33.405Z,7.73
2017-10-04T07:46:34.443Z,6.60
2017-10-04T07:48:35.703Z,6.70
2017-10-04T07:51:01.784Z,6.43
2017-10-04T07:53:02.891Z,6.87
2017-10-04T07:55:03.893Z,6.20
2017-10-04T07:57:04.885Z,6.20
2017-10-04T07:59:05.972Z,6.10
2017-10-04T08:01:06.961Z,6.80
2017-10-04T08:03:07.945Z,5.80
2017-10-04T08:05:08.943Z,6.03
2017-10-04T08:07:18.604Z,6.83
2017-10-04T08:09:33.871Z,6.53
2017-10-04T08:12:01.328Z,7.13
2017-10-04T08:16:30.491Z,5.83
2017-10-04T08:21:02.468Z,5.30
2017-10-04T08:23:03.480Z,6.10
2017-10-04T08:25:04.480Z,5.67
2017-10-04T08:27:05.484Z,5.80
2017-10-04T08:29:06.486Z,5.93
2017-10-04T08:31:07.646Z,4.80
2017-10-04T08:33:08.623Z,5.60
2017-10-04T08:35:31.962Z,6.00
2017-10-04T08:37:33.050Z,4.80
2017-10-04T08:44:33.350Z,4.80
2017-10-04T08:49:21.572Z,5.10
2017-10-04T08:51:22.548Z,5.90
2017-10-04T08:53:23.594Z,5.30
2017-10-04T08:55:25.439Z,5.17
2017-10-04T08:57:26.686Z,4.80
2017-10-04T08:59:27.647Z,5.37
2017-10-04T09:01:28.632Z,5.30
2017-10-04T09:03:29.684Z,4.90
2017-10-04T09:05:43.143Z,5.87
2017-10-04T09:07:53.771Z,5.53
2017-10-04T09:09:54.759Z,5.97
2017-10-04T09:11:57.036Z,5.90
2017-10-04T09:13:58.785Z,4.40
2017-10-04T09:15:59.761Z,5.60
2017-10-04T09:18:01.480Z,4.67
2017-10-04T09:20:02.751Z,4.87
2017-10-04T09:22:04.477Z,5.13
2017-10-04T09:24:05.455Z,5.27
2017-10-04T09:26:08.386Z,5.27
2017-10-04T09:28:10.198Z,5.33
2017-10-04T09:30:11.169Z,5.90
2017-10-04T09:32:12.115Z,5.50
2017-10-04T09:34:13.099Z,5.03
2017-10-04T09:36:14.043Z,5.40
2017-10-04T09:38:17.364Z,5.70
2017-10-04T09:40:18.391Z,5.53
2017-10-04T09:42:19.417Z,5.70
2017-10-04T09:44:21.136Z,4.47
2017-10-04T09:46:22.937Z,5.17
2017-10-04T09:48:23.871Z,5.10
2017-10-04T09:50:24.801Z,5.10
2017-10-04T09:52:25.757Z,4.40
2017-10-04T09:54:26.749Z,4.50
2017-10-04T09:56:27.720Z,4.30
2017-10-04T09:58:28.675Z,3.70
2017-10-04T10:00:29.667Z,4.47
2017-10-04T10:02:32.393Z,5.00
2017-10-04T10:04:34.081Z,4.77
2017-10-04T10:06:35.052Z,5.43
2017-10-04T10:08:36.142Z,4.40
2017-10-04T10:10:37.160Z,5.40
2017-10-04T10:12:38.889Z,4.57
2017-10-04T10:14:39.879Z,4.10
2017-10-04T10:16:40.901Z,5.43
2017-10-04T10:18:41.896Z,4.40
2017-10-04T10:20:42.929Z,5.33
2017-10-04T10:22:43.905Z,4.87
2017-10-04T10:24:44.930Z,5.07
2017-10-04T10:26:46.000Z,5.40
2017-10-04T10:28:46.985Z,3.97
2017-10-04T10:30:47.945Z,4.73
2017-10-04T10:32:49.759Z,5.00
2017-10-04T10:34:50.767Z,4.80
2017-10-04T10:36:51.980Z,4.50
2017-10-04T10:38:53.033Z,5.30
2017-10-04T10:40:53.988Z,4.40
2017-10-04T10:42:57.217Z,5.20
2017-10-04T10:45:00.225Z,4.70
2017-10-04T10:47:03.448Z,5.00
2017-10-04T10:49:04.508Z,5.27
2017-10-04T10:51:05.541Z,5.47
2017-10-04T10:53:06.564Z,5.47
2017-10-04T10:55:07.536Z,5.10
2017-10-04T10:57:08.528Z,4.70
2017-10-04T10:59:10.211Z,4.60
2017-10-04T11:01:11.184Z,6.27
2017-10-04T11:03:12.148Z,5.20
2017-10-04T11:05:16.873Z,5.20
2017-10-04T11:07:18.300Z,5.33
2017-10-04T11:09:19.343Z,5.13
2017-10-04T11:11:20.317Z,5.03
2017-10-04T11:13:22.934Z,6.67
2017-10-04T11:15:25.620Z,4.90
2017-10-04T11:17:29.172Z,5.53
2017-10-04T11:19:30.176Z,6.03
2017-10-04T11:21:31.413Z,5.80
2017-10-04T11:23:33.174Z,5.40
2017-10-04T11:25:37.202Z,5.50
2017-10-04T11:27:38.284Z,6.77
2017-10-04T11:29:39.326Z,6.00
2017-10-04T11:31:41.053Z,6.63
2017-10-04T11:33:42.358Z,6.57
2017-10-04T11:35:43.373Z,6.40
2017-10-04T11:37:44.356Z,6.83
2017-10-04T11:39:47.082Z,5.87
2017-10-04T11:41:48.303Z,6.33
2017-10-04T11:43:49.283Z,6.30
2017-10-04T11:45:54.781Z,6.28
2017-10-04T11:47:56.917Z,5.83
2017-10-04T11:49:58.727Z,5.10
2017-10-04T11:51:59.723Z,5.73
2017-10-04T11:54:02.691Z,5.73
2017-10-04T11:56:04.081Z,5.47
2017-10-04T11:58:05.236Z,5.87
2017-10-04T12:00:06.246Z,5.37
2017-10-04T12:02:07.221Z,6.17
2017-10-04T12:04:11.621Z,6.03
2017-10-04T12:06:17.035Z,5.50
2017-10-04T12:08:18.254Z,6.30
2017-10-04T12:10:19.260Z,5.57
2017-10-04T12:12:21.419Z,4.83
2017-10-04T12:14:24.694Z,5.17
2017-10-04T12:16:26.544Z,4.97
2017-10-04T12:18:28.439Z,5.40
2017-10-04T12:20:29.411Z,5.17
2017-10-04T12:22:33.232Z,4.93
2017-10-04T12:24:34.269Z,4.70
2017-10-04T12:26:36.431Z,5.07
2017-10-04T12:28:38.167Z,5.70
2017-10-04T12:30:39.235Z,4.97
2017-10-04T12:32:41.876Z,6.67
2017-10-04T12:34:42.861Z,5.67
2017-10-04T12:36:44.584Z,5.10
2017-10-04T12:38:45.548Z,5.80
2017-10-04T12:40:47.787Z,5.13
2017-10-04T12:42:48.766Z,5.23
2017-10-04T12:44:49.715Z,5.30
2017-10-04T12:46:50.666Z,5.37
2017-10-04T12:48:51.639Z,4.90
2017-10-04T12:50:53.311Z,4.70
2017-10-04T12:52:54.323Z,5.20
2017-10-04T12:54:55.344Z,5.70
2017-10-04T12:57:00.677Z,5.10
2017-10-04T12:59:01.889Z,4.43
2017-10-04T13:01:05.321Z,5.50
2017-10-04T13:03:06.317Z,5.43
2017-10-04T13:05:07.461Z,5.70
2017-10-04T13:07:09.196Z,6.10
2017-10-04T13:09:10.220Z,5.57
2017-10-04T13:11:12.524Z,5.60
2017-10-04T13:13:17.740Z,4.77
2017-10-04T13:15:18.786Z,4.93
2017-10-04T13:17:19.803Z,5.30
2017-10-04T13:19:24.618Z,4.40
2017-10-04T13:21:25.624Z,4.53
2017-10-04T13:23:26.784Z,5.20
2017-10-04T13:25:27.760Z,4.87
2017-10-04T13:27:28.707Z,5.77
2017-10-04T13:29:29.676Z,5.20
2017-10-04T13:31:35.734Z,5.17
2017-10-04T13:33:37.733Z,5.97
2017-10-04T13:35:39.465Z,5.30
2017-10-04T13:37:43.145Z,4.70
2017-10-04T13:39:44.112Z,4.97
2017-10-04T13:41:45.851Z,5.20
2017-10-04T13:43:46.940Z,5.57
2017-10-04T13:45:56.129Z,3.80
2017-10-04T13:47:57.244Z,4.77
2017-10-04T13:52:05.912Z,5.43
2017-10-04T13:54:06.905Z,4.57
2017-10-04T13:56:07.920Z,4.87
2017-10-04T13:58:13.305Z,4.70
2017-10-04T14:00:15.138Z,5.50
2017-10-04T14:02:16.191Z,5.00
2017-10-04T14:04:17.347Z,4.50
2017-10-04T14:06:18.495Z,4.50
2017-10-04T14:08:19.578Z,5.00
2017-10-04T14:10:20.828Z,5.20
2017-10-04T14:12:21.909Z,5.03
2017-10-04T14:14:22.868Z,4.67
2017-10-04T14:16:23.893Z,4.43
2017-10-04T14:18:25.220Z,5.10
2017-10-04T14:20:26.385Z,4.67
2017-10-04T14:22:27.378Z,4.50
2017-10-04T14:24:28.397Z,5.13
2017-10-04T14:26:29.393Z,5.27
2017-10-04T14:28:30.485Z,5.13
2017-10-04T14:30:31.441Z,5.00
2017-10-04T14:32:33.242Z,4.63
2017-10-04T14:34:34.254Z,4.40
2017-10-04T14:36:35.220Z,5.10
2017-10-04T14:38:36.188Z,4.30
2017-10-04T14:40:37.193Z,5.17
2017-10-04T14:42:38.562Z,4.60
2017-10-04T14:44:39.630Z,4.83
2017-10-04T14:46:40.604Z,4.70
2017-10-04T14:48:41.579Z,5.37
2017-10-04T14:50:42.581Z,4.43
2017-10-04T14:52:43.696Z,4.97
2017-10-04T14:54:44.681Z,5.00
2017-10-04T14:56:45.665Z,5.37
2017-10-04T14:58:46.617Z,4.63
2017-10-04T15:00:47.617Z,5.60
2017-10-04T15:02:48.574Z,4.90
2017-10-04T15:04:49.593Z,4.80
2017-10-04T15:06:50.608Z,5.20
2017-10-04T15:08:51.690Z,5.30
2017-10-04T15:10:52.707Z,4.80
2017-10-04T15:12:53.722Z,5.70
2017-10-04T15:14:54.709Z,5.57
2017-10-04T15:16:55.734Z,5.40
2017-10-04T15:18:56.753Z,5.20
2017-10-04T15:20:57.724Z,4.83
2017-10-04T15:22:58.699Z,6.07
2017-10-04T15:24:59.832Z,5.13
2017-10-04T15:27:00.921Z,5.80
2017-10-04T15:29:01.893Z,5.40
2017-10-04T15:31:02.896Z,5.00
2017-10-04T15:33:03.882Z,4.53
2017-10-04T15:35:04.951Z,4.57
2017-10-04T15:37:06.122Z,4.80
2017-10-04T15:39:07.329Z,4.93
2017-10-04T15:41:08.390Z,5.50
2017-10-04T15:43:09.470Z,4.30
2017-10-04T15:45:11.395Z,4.90
2017-10-04T15:47:12.648Z,4.10
2017-10-04T15:49:13.672Z,5.23
2017-10-04T15:51:14.703Z,4.57
2017-10-04T15:53:15.838Z,5.50
2017-10-04T15:55:17.114Z,5.55
2017-10-04T15:57:18.155Z,4.40
2017-10-04T15:59:20.736Z,4.90
2017-10-04T16:01:21.844Z,5.23
2017-10-04T16:03:23.057Z,5.30
2017-10-04T16:05:24.449Z,4.97
2017-10-04T16:07:25.466Z,4.90
2017-10-04T16:09:28.163Z,5.93
2017-10-04T16:11:29.283Z,4.73
2017-10-04T16:13:31.623Z,5.10
2017-10-04T16:15:33.731Z,5.73
2017-10-04T16:17:36.724Z,5.20
2017-10-04T16:19:38.971Z,5.80
2017-10-04T16:21:41.370Z,5.27
2017-10-04T16:23:42.584Z,5.17
2017-10-04T16:25:43.690Z,5.60
2017-10-04T16:27:45.271Z,5.27
2017-10-04T16:29:46.320Z,5.83
2017-10-04T16:31:47.850Z,5.50
2017-10-04T16:33:49.166Z,5.77
2017-10-04T16:35:50.328Z,5.30
2017-10-04T16:37:51.527Z,5.77
2017-10-04T16:39:53.166Z,5.50
2017-10-04T16:41:54.367Z,6.20
2017-10-04T16:43:55.434Z,5.47
2017-10-04T16:45:56.650Z,5.57
2017-10-04T16:47:58.312Z,5.00
2017-10-04T16:49:59.622Z,5.63
2017-10-04T16:52:00.752Z,4.97
2017-10-04T16:54:01.974Z,5.40
2017-10-04T16:56:03.059Z,5.30
2017-10-04T16:58:04.113Z,4.90
2017-10-04T17:00:05.156Z,5.90
2017-10-04T17:02:06.515Z,6.00
2017-10-04T17:04:07.783Z,5.40
2017-10-04T17:06:08.820Z,5.57
2017-10-04T17:08:10.180Z,5.10
2017-10-04T17:10:11.344Z,5.17
2017-10-04T17:12:12.352Z,5.20
2017-10-04T17:14:15.069Z,5.47
2017-10-04T17:16:17.266Z,6.13
2017-10-04T17:18:18.434Z,4.60
2017-10-04T17:20:19.626Z,5.87
2017-10-04T17:22:20.670Z,5.40
2017-10-04T17:24:24.073Z,5.37
2017-10-04T17:26:27.476Z,5.27
2017-10-04T17:28:28.690Z,5.97
2017-10-04T17:30:30.071Z,6.30
2017-10-04T17:32:31.356Z,6.10
2017-10-04T17:34:32.495Z,6.40
2017-10-04T17:39:11.175Z,5.50
2017-10-04T17:41:12.327Z,5.37
2017-10-04T17:43:14.440Z,5.80
2017-10-04T17:45:17.858Z,5.70
2017-10-04T17:47:18.969Z,5.70
2017-10-04T17:49:20.297Z,5.57
2017-10-04T17:51:22.699Z,5.53
2017-10-04T17:53:23.746Z,6.00
2017-10-04T17:55:24.821Z,5.60
2017-10-04T17:57:46.724Z,6.00
2017-10-04T17:59:48.677Z,6.28
2017-10-04T18:02:10.504Z,5.57
2017-10-04T18:04:14.502Z,4.93
2017-10-04T18:06:16.698Z,5.33
2017-10-04T18:10:42.924Z,4.90
2017-10-04T18:12:45.406Z,4.80
2017-10-04T18:14:47.189Z,4.90
2017-10-04T18:16:59.120Z,4.70
2017-10-04T18:19:00.249Z,5.70
2017-10-04T18:21:01.364Z,4.47
2017-10-04T18:23:02.458Z,5.13
2017-10-04T18:25:03.871Z,5.03
2017-10-04T18:27:05.263Z,5.13
2017-10-04T18:29:07.448Z,4.20
2017-10-04T18:31:11.405Z,5.00
2017-10-04T18:33:14.187Z,5.20
2017-10-04T18:35:16.293Z,5.27
2017-10-04T18:37:18.527Z,5.97
2017-10-04T18:39:19.824Z,4.23
2017-10-04T18:41:20.982Z,4.63
2017-10-04T18:43:22.112Z,5.07
2017-10-04T18:45:23.310Z,5.47
2017-10-04T18:47:24.357Z,4.97
2017-10-04T18:49:26.380Z,5.17
2017-10-04T18:51:27.711Z,4.80
2017-10-04T18:53:28.789Z,4.50
2017-10-04T18:55:29.957Z,4.50
2017-10-04T18:57:31.100Z,4.80
2017-10-04T18:59:32.170Z,4.93
2017-10-04T19:01:33.221Z,5.13
2017-10-04T19:03:34.356Z,4.73
2017-10-04T19:05:35.956Z,4.63
2017-10-04T19:07:37.450Z,5.07
2017-10-04T19:09:38.530Z,4.47
2017-10-04T19:11:39.610Z,4.63
2017-10-04T19:13:40.649Z,4.50
2017-10-04T19:15:41.706Z,4.40
2017-10-04T19:17:44.087Z,4.77
2017-10-04T19:19:51.950Z,5.30
2017-10-04T19:21:53.220Z,4.60
2017-10-04T19:26:04.091Z,4.83
2017-10-04T19:28:05.636Z,5.10
2017-10-04T19:32:44.769Z,4.60
2017-10-04T19:35:03.148Z,4.47
2017-10-04T19:37:06.073Z,4.23
2017-10-04T19:44:23.667Z,4.10
2017-10-04T19:46:36.622Z,4.90
2017-10-04T19:51:16.794Z,4.27
2017-10-04T19:53:17.853Z,5.43
2017-10-04T19:55:18.908Z,4.60
2017-10-04T19:57:20.397Z,4.60
2017-10-04T19:59:22.757Z,3.77
2017-10-04T20:01:23.881Z,4.30
2017-10-04T20:03:25.871Z,4.23
2017-10-04T20:05:30.072Z,4.05
2017-10-04T20:07:33.122Z,5.30
2017-10-04T20:09:34.269Z,4.27
2017-10-04T20:11:35.384Z,4.27
2017-10-04T20:13:37.173Z,4.37
2017-10-04T20:17:54.514Z,5.03
2017-10-04T20:19:55.778Z,4.77
2017-10-04T20:22:02.261Z,3.40
2017-10-04T20:24:03.385Z,3.70
2017-10-04T20:26:04.481Z,4.13
2017-10-04T20:28:10.443Z,4.10
2017-10-04T20:30:14.033Z,4.00
2017-10-04T20:32:15.173Z,3.73
2017-10-04T20:34:16.523Z,4.40
2017-10-04T20:36:18.510Z,4.47
2017-10-04T20:38:19.627Z,4.50
2017-10-04T20:40:21.292Z,4.30
2017-10-04T20:42:22.814Z,4.30
2017-10-04T20:44:24.050Z,4.30
2017-10-04T20:46:25.336Z,4.00
2017-10-04T20:48:26.466Z,4.50
2017-10-04T20:50:27.609Z,4.63
2017-10-04T20:52:28.648Z,4.60
2017-10-04T20:54:29.694Z,4.20
2017-10-04T20:56:38.370Z,4.83
2017-10-04T20:58:39.422Z,4.57
2017-10-04T21:00:40.432Z,4.40
2017-10-04T21:02:41.606Z,3.83
2017-10-04T21:04:42.931Z,4.60
2017-10-04T21:06:50.237Z,4.60
2017-10-04T21:08:51.331Z,3.90
2017-10-04T21:10:52.545Z,4.20
2017-10-04T21:12:53.988Z,4.10
2017-10-04T21:14:55.156Z,3.87
2017-10-04T21:16:56.223Z,3.63
2017-10-04T21:18:57.312Z,5.00
2017-10-04T21:20:58.374Z,4.17
2017-10-04T21:23:00.179Z,4.33
2017-10-04T21:25:01.353Z,5.17
2017-10-04T21:27:03.525Z,4.40
2017-10-04T21:29:04.855Z,4.23
2017-10-04T21:31:06.144Z,4.70
2017-10-04T21:33:07.200Z,3.60
2017-10-04T21:35:08.522Z,4.17
2017-10-04T21:37:09.650Z,4.17
2017-10-04T21:39:11.277Z,4.27
2017-10-04T21:41:12.363Z,4.90
2017-10-04T21:43:13.878Z,3.83
2017-10-04T21:45:15.072Z,5.00
2017-10-04T21:47:16.428Z,4.20
2017-10-04T21:49:17.736Z,4.80
2017-10-04T21:51:19.110Z,4.03
2017-10-04T21:53:20.208Z,4.47
2017-10-04T21:55:22.483Z,4.73
2017-10-04T21:57:23.574Z,4.57
2017-10-04T21:59:24.667Z,5.03
2017-10-04T22:01:25.800Z,4.53
2017-10-04T22:03:26.845Z,4.90
2017-10-04T22:05:28.186Z,4.37
2017-10-04T22:07:29.656Z,4.40
2017-10-04T22:09:32.116Z,3.93
2017-10-04T22:11:33.916Z,5.10
2017-10-04T22:13:34.998Z,4.60
2017-10-04T22:15:36.410Z,4.70
2017-10-04T22:17:37.507Z,5.10
2017-10-04T22:19:38.619Z,4.23
2017-10-04T22:21:39.872Z,5.13
2017-10-04T22:23:41.409Z,4.40
2017-10-04T22:25:42.461Z,4.93
2017-10-04T22:27:46.061Z,4.63
2017-10-04T22:29:48.068Z,5.47
2017-10-04T22:31:49.263Z,4.53
2017-10-04T22:33:51.624Z,5.57
2017-10-04T22:35:52.959Z,5.60
2017-10-04T22:37:57.009Z,5.90
2017-10-04T22:39:58.118Z,5.90
2017-10-04T22:41:59.273Z,5.60
2017-10-04T22:44:00.418Z,5.70
2017-10-04T22:46:01.804Z,5.77
2017-10-04T22:48:02.946Z,6.37
2017-10-04T22:50:03.974Z,5.40
2017-10-04T22:52:05.065Z,6.27
2017-10-04T22:54:06.833Z,6.60
2017-10-04T22:56:08.081Z,6.23
2017-10-04T22:58:09.421Z,6.70
2017-10-04T23:00:11.981Z,7.33
2017-10-04T23:02:13.111Z,7.10
2017-10-04T23:04:14.278Z,7.27
2017-10-04T23:06:15.444Z,7.80
2017-10-04T23:08:17.342Z,8.23
2017-10-04T23:10:19.400Z,7.37
2017-10-04T23:12:20.459Z,7.20
2017-10-04T23:14:21.540Z,8.00
2017-10-04T23:19:05.024Z,8.43
2017-10-04T23:21:09.189Z,8.30
2017-10-04T23:23:14.029Z,8.80
2017-10-04T23:25:16.313Z,8.30
2017-10-04T23:27:18.683Z,9.23
2017-10-04T23:29:19.952Z,8.83
2017-10-04T23:31:22.002Z,9.40
2017-10-04T23:33:23.224Z,9.40
2017-10-04T23:35:24.403Z,9.27
2017-10-04T23:37:26.864Z,8.87
2017-10-04T23:39:28.510Z,9.23
2017-10-04T23:41:30.784Z,8.40
2017-10-04T23:43:32.130Z,8.77
2017-10-04T23:45:33.888Z,8.60
2017-10-04T23:47:35.048Z,8.37
2017-10-04T23:49:36.258Z,9.47
2017-10-04T23:51:37.527Z,9.37
2017-10-04T23:53:42.194Z,8.57
2017-10-04T23:55:44.479Z,10.57
2017-10-04T23:57:45.752Z,8.33
2017-10-04T23:59:46.791Z,9.10
